Sunday, October 21, 2018, 11:46 PM GMT
Back to Local

CYSC, Sherbrooke, Que.

Location: , , Canada Lat: 45.4
Local Time: 11:46 PM GMT (23:46 GMT) Lon: -71.883
Time Zone: GMT Elev: 557 ft

Show me the last for .
Show Decoded

2018-10-21 23:02 METAR CYSC 212302Z AUTO 28011G19KT 9SM FEW029 SCT044 OVC065 01/M05 A2991 RMK
                 SLP142 =
2018-10-21 23:00 METAR CYSC 212300Z AUTO 28013G20KT 9SM -SN FEW029 SCT044 OVC065 01/M05 A2991 RMK
                 SLP142 =
2018-10-21 22:52 METAR CYSC 212252Z AUTO 28016G21KT 9SM -SN FEW027 SCT037 BKN044 OVC065 01/M05
                 A2991 RMK SLP142 =
2018-10-21 22:51 METAR CYSC 212251Z AUTO 28015G25KT 9SM -SN -UP FEW027 SCT037 BKN044 BKN065
                 01/M05 A2991 RMK SLP141 =
2018-10-21 22:42 METAR CYSC 212242Z AUTO 28017G25KT 250V310 9SM -UP FEW037 BKN044 BKN050 BKN065
                 01/M06 A2991 RMK SLP140 =
2018-10-21 22:36 METAR CYSC 212236Z AUTO 28013G22KT 9SM BKN043 BKN060 01/M06 A2991 RMK SLP139 =
2018-10-21 22:32 METAR CYSC 212232Z AUTO 29017G23KT 9SM -UP FEW034 BKN045 BKN060 01/M06 A2990 RMK
                 SLP138 =
2018-10-21 22:29 METAR CYSC 212229Z AUTO 29012G23KT 9SM -RA -UP FEW034 BKN045 BKN065 01/M06 A2990
                 RMK SLP138 =
2018-10-21 22:27 METAR CYSC 212227Z AUTO 29013G23KT 9SM -UP FEW034 BKN045 BKN055 BKN064 01/M06
                 A2990 RMK SLP138 =
2018-10-21 22:23 METAR CYSC 212223Z AUTO 31012G23KT 9SM -RA FEW034 BKN045 OVC055 02/M06 A2990 RMK
                 SLP138 =
2018-10-21 22:22 METAR CYSC 212222Z AUTO 30010G16KT 9SM -RASN BKN045 OVC055 02/M06 A2990 RMK
                 SLP138 =
2018-10-21 22:19 METAR CYSC 212219Z AUTO 29011G20KT 9SM -SN BKN045 OVC055 01/M06 A2990 RMK SLP137
                 =
2018-10-21 22:13 METAR CYSC 212213Z AUTO 29012G20KT 9SM -SN -UP BKN045 OVC055 02/M06 A2990 RMK
                 SLP136 =
2018-10-21 22:07 METAR CYSC 212207Z AUTO 30011G18KT 9SM -UP BKN046 OVC055 02/M06 A2989 RMK SLP135
                 =
2018-10-21 22:00 METAR CYSC 212200Z AUTO 29012G19KT 9SM OVC055 02/M06 A2989 RMK SLP133 =
2018-10-21 21:00 METAR CYSC 212100Z AUTO 30013G24KT 9SM OVC060 02/M08 A2986 RMK SLP123 =
2018-10-21 20:00 METAR CYSC 212000Z AUTO 28016G22KT 9SM OVC050 02/M08 A2985 RMK SLP119 =
2018-10-21 19:00 METAR CYSC 211900Z AUTO 28020G25KT 9SM OVC050 02/M07 A2983 RMK SLP114 =
2018-10-21 18:27 METAR CYSC 211827Z AUTO 27012G18KT 9SM SCT039 OVC050 02/M05 A2983 RMK SLP112 =
2018-10-21 18:01 METAR CYSC 211801Z AUTO 28012G19KT 9SM -RA OVC037 01/M05 A2983 RMK SLP112 =
2018-10-21 18:00 METAR CYSC 211800Z AUTO 28012G19KT 9SM OVC037 01/M05 A2983 RMK SLP112 =
2018-10-21 17:53 METAR CYSC 211753Z AUTO 27014G22KT 9SM BKN037 OVC045 01/M05 A2983 RMK SLP111 =
2018-10-21 17:45 METAR CYSC 211745Z AUTO 29018KT 9SM -RA OVC040 01/M06 A2983 RMK SLP111 =
2018-10-21 17:42 METAR CYSC 211742Z AUTO 29013G24KT 9SM -RASN OVC040 01/M06 A2983 RMK SLP112 =
2018-10-21 17:39 METAR CYSC 211739Z AUTO 29015G24KT 9SM -RASN -UP OVC040 01/M06 A2983 RMK SLP111
                 =
2018-10-21 17:36 METAR CYSC 211736Z AUTO 29014G24KT 9SM -SN -UP OVC040 01/M06 A2983 RMK SLP111 =
2018-10-21 17:31 METAR CYSC 211731Z AUTO 29015G22KT 9SM -UP OVC042 01/M06 A2983 RMK SLP111 =
2018-10-21 17:28 METAR CYSC 211728Z AUTO 28016KT 9SM OVC042 01/M06 A2982 RMK SLP110 =
2018-10-21 17:24 METAR CYSC 211724Z AUTO 29013G19KT 9SM -SN OVC042 01/M06 A2982 RMK SLP110 =
2018-10-21 17:16 METAR CYSC 211716Z AUTO 28014G21KT 9SM -RASN OVC040 01/M05 A2982 RMK SLP109 =
2018-10-21 17:11 METAR CYSC 211711Z AUTO 28018KT 9SM -RA BKN040 OVC050 01/M06 A2982 RMK SLP109 =
2018-10-21 17:00 METAR CYSC 211700Z AUTO 27014G22KT 9SM BKN038 OVC048 01/M05 A2982 RMK SLP109 =
2018-10-21 16:57 METAR CYSC 211657Z AUTO 28017G22KT 9SM BKN038 OVC050 02/M05 A2982 RMK SLP109 =
2018-10-21 16:50 METAR CYSC 211650Z AUTO 28013G21KT 9SM -SN BKN038 OVC050 02/M05 A2982 RMK SLP109
                 =
2018-10-21 16:44 METAR CYSC 211644Z AUTO 28011G21KT 9SM -RASN OVC040 01/M05 A2982 RMK SLP108 =
2018-10-21 16:37 METAR CYSC 211637Z AUTO 28015G20KT 9SM -RA OVC040 01/M05 A2981 RMK SLP107 =
2018-10-21 16:32 METAR CYSC 211632Z AUTO 28016G22KT 9SM OVC040 02/M05 A2981 RMK SLP107 =
2018-10-21 16:22 METAR CYSC 211622Z AUTO 29016G25KT 9SM -RA OVC042 01/M06 A2981 RMK SLP106 =
2018-10-21 16:19 METAR CYSC 211619Z AUTO 30017KT 9SM OVC042 01/M06 A2981 RMK SLP107 =
2018-10-21 16:00 METAR CYSC 211600Z AUTO 28015G23KT 9SM -RA OVC042 02/M06 A2981 RMK SLP106 =
2018-10-21 15:59 METAR CYSC 211559Z AUTO 28017G23KT 9SM -RA OVC042 02/M06 A2981 RMK SLP105 =
2018-10-21 15:00 METAR CYSC 211500Z AUTO 28011G17KT 9SM OVC040 02/M05 A2981 RMK SLP103 =
2018-10-21 14:00 METAR CYSC 211400Z AUTO 29014G21KT 9SM OVC040 01/M05 A2980 RMK SLP101 =
2018-10-21 13:00 METAR CYSC 211300Z AUTO 29012G17KT 9SM OVC040 01/M04 A2978 RMK SLP094 =
2018-10-21 12:00 METAR CYSC 211200Z AUTO 28007KT 9SM OVC043 M00/M03 A2976 RMK SLP088 =
2018-10-21 11:00 METAR CYSC 211100Z AUTO 28007KT 9SM SCT035 OVC043 M01/M03 A2973 RMK SLP077 =
2018-10-21 10:00 METAR CYSC 211000Z AUTO 23005KT 9SM BKN039 M01/M03 A2971 RMK SLP070 =
2018-10-21 09:00 METAR CYSC 210900Z AUTO 27006KT 9SM CLR M01/M03 A2969 RMK SLP061 =
2018-10-21 08:00 METAR CYSC 210800Z AUTO 27008KT 9SM CLR M00/M02 A2966 RMK SLP052 =
2018-10-21 07:00 METAR CYSC 210700Z AUTO 29009KT 9SM CLR 01/M02 A2964 RMK SLP043 =
2018-10-21 06:00 METAR CYSC 210600Z AUTO 30009G15KT 9SM OVC075 02/M01 A2963 RMK SLP040 =
2018-10-21 05:00 METAR CYSC 210500Z AUTO 27002KT 9SM OVC075 03/M01 A2962 RMK SLP036 =
2018-10-21 04:00 METAR CYSC 210400Z AUTO 28006KT 9SM OVC080 04/M01 A2960 RMK SLP031 =
2018-10-21 03:00 METAR CYSC 210300Z AUTO 30005KT 9SM SCT060 OVC081 05/M01 A2959 RMK SLP026 =
2018-10-21 02:00 METAR CYSC 210200Z AUTO 28008KT 9SM FEW065 BKN077 BKN250 05/M02 A2958 RMK SLP022
                 =
2018-10-21 01:00 METAR CYSC 210100Z AUTO 28006KT 9SM BKN055 BKN071 OVC250 06/M02 A2956 RMK SLP017
                 =
2018-10-21 00:00 METAR CYSC 210000Z AUTO 27009G15KT 9SM BKN055 BKN083 08/01 A2955 RMK SLP012 =

Support USWX by starting your Amazon purchase here.